GLOGT EKCH-EGPF
Flight info
| Callsign | GLOGT |
|---|---|
| Flight time | N/A |
| Altitude | 40000 |
| Route | ODDON P60 EPILO DCT NUGLO P60 AMRAM L983 PETIL DCT SURAT DCT ROBEM DCT AGPED |
| Aircraft | GLF6/M-SBDE2E3FGHIJ4J5M1RWXY/LB1D1 |
Departure
| Time | 2026-04-25 17:41 |
|---|---|
| Airport | Copenhagen Kastrup Airport (EKCH) |
Arrival
| Time | N/A |
|---|---|
| Airport | Glasgow Airport (EGPF) |
| Time | Latitude | Longitude | Altitude | Speed | Heading |
|---|---|---|---|---|---|
| 2026-04-25 17:10 | 55.62887 | 12.63357 | 18 ft | 0 kts | 326° |
| 2026-04-25 17:29 | 55.62884 | 12.63361 | 18 ft | 3 kts | 326° |
| 2026-04-25 17:30 | 55.62864 | 12.63391 | 18 ft | 4 kts | 301° |
| 2026-04-25 17:30 | 55.62858 | 12.63432 | 23 ft | 4 kts | 250° |
| 2026-04-25 17:30 | 55.62861 | 12.63445 | 18 ft | 4 kts | 236° |
| 2026-04-25 17:33 | 55.62830 | 12.63393 | 18 ft | 9 kts | 216° |
| 2026-04-25 17:34 | 55.62773 | 12.63319 | 18 ft | 11 kts | 226° |
| 2026-04-25 17:34 | 55.62778 | 12.63183 | 19 ft | 13 kts | 301° |
| 2026-04-25 17:34 | 55.62793 | 12.63039 | 15 ft | 14 kts | 233° |
| 2026-04-25 17:34 | 55.62704 | 12.62952 | 16 ft | 15 kts | 191° |
| 2026-04-25 17:35 | 55.62602 | 12.62969 | 18 ft | 15 kts | 174° |
| 2026-04-25 17:35 | 55.62493 | 12.62993 | 18 ft | 17 kts | 170° |
| 2026-04-25 17:35 | 55.62378 | 12.63026 | 18 ft | 6 kts | 171° |
| 2026-04-25 17:35 | 55.62377 | 12.63026 | 18 ft | 0 kts | 171° |
| 2026-04-25 17:36 | 55.62321 | 12.63058 | 19 ft | 11 kts | 152° |
| 2026-04-25 17:36 | 55.62315 | 12.63068 | 18 ft | 0 kts | 126° |
| 2026-04-25 17:37 | 55.62284 | 12.63193 | 20 ft | 16 kts | 101° |
| 2026-04-25 17:37 | 55.62272 | 12.63394 | 18 ft | 17 kts | 91° |
| 2026-04-25 17:37 | 55.62273 | 12.63564 | 18 ft | 11 kts | 88° |
| 2026-04-25 17:37 | 55.62274 | 12.63706 | 18 ft | 12 kts | 89° |
| 2026-04-25 17:38 | 55.62276 | 12.63870 | 18 ft | 14 kts | 89° |
| 2026-04-25 17:38 | 55.62278 | 12.63992 | 17 ft | 16 kts | 89° |
| 2026-04-25 17:38 | 55.62273 | 12.64281 | 15 ft | 19 kts | 109° |
| 2026-04-25 17:38 | 55.62173 | 12.64400 | 16 ft | 19 kts | 201° |
| 2026-04-25 17:39 | 55.62086 | 12.64261 | 18 ft | 17 kts | 204° |
| 2026-04-25 17:39 | 55.61976 | 12.64169 | 19 ft | 18 kts | 206° |
| 2026-04-25 17:39 | 55.61859 | 12.64072 | 18 ft | 19 kts | 188° |
| 2026-04-25 17:39 | 55.61756 | 12.64082 | 18 ft | 0 kts | 178° |
| 2026-04-25 17:40 | 55.61657 | 12.64087 | 21 ft | 28 kts | 189° |
| 2026-04-25 17:40 | 55.61421 | 12.63754 | 20 ft | 84 kts | 221° |
| 2026-04-25 17:40 | 55.60726 | 12.62677 | 20 ft | 180 kts | 223° |
| 2026-04-25 17:40 | 55.59625 | 12.60944 | 392 ft | 254 kts | 226° |
| 2026-04-25 17:41 | 55.58134 | 12.58606 | 1085 ft | 295 kts | 226° |
| 2026-04-25 17:41 | 55.56700 | 12.56456 | 1732 ft | 243 kts | 229° |
| 2026-04-25 17:41 | 55.55856 | 12.54273 | 2386 ft | 206 kts | 255° |
| 2026-04-25 17:41 | 55.55506 | 12.51813 | 3120 ft | 198 kts | 275° |
| 2026-04-25 17:42 | 55.55715 | 12.49407 | 3941 ft | 193 kts | 289° |
| 2026-04-25 17:42 | 55.55940 | 12.46978 | 4860 ft | 201 kts | 285° |
| 2026-04-25 17:42 | 55.56126 | 12.44497 | 5858 ft | 223 kts | 285° |
| 2026-04-25 17:42 | 55.56346 | 12.41732 | 6854 ft | 220 kts | 284° |
| 2026-04-25 17:43 | 55.56553 | 12.38943 | 7839 ft | 228 kts | 284° |
| 2026-04-25 17:43 | 55.56765 | 12.36149 | 8853 ft | 236 kts | 283° |
| 2026-04-25 17:43 | 55.56977 | 12.33338 | 9867 ft | 233 kts | 283° |
| 2026-04-25 17:43 | 55.57195 | 12.30472 | 10820 ft | 232 kts | 283° |
| 2026-04-25 17:44 | 55.57424 | 12.27494 | 11822 ft | 259 kts | 283° |
| 2026-04-25 17:44 | 55.57680 | 12.24167 | 12874 ft | 282 kts | 283° |
| 2026-04-25 17:44 | 55.57917 | 12.20822 | 13903 ft | 276 kts | 283° |
| 2026-04-25 17:44 | 55.58159 | 12.17540 | 14816 ft | 269 kts | 284° |
| 2026-04-25 17:45 | 55.58412 | 12.14191 | 15787 ft | 276 kts | 285° |
| 2026-04-25 17:45 | 55.58495 | 12.13068 | 16117 ft | 270 kts | 285° |
| 2026-04-25 17:45 | 55.58901 | 12.07556 | 17815 ft | 270 kts | 286° |
| 2026-04-25 17:45 | 55.59138 | 12.04284 | 18759 ft | 272 kts | 287° |
| 2026-04-25 17:46 | 55.59388 | 12.00936 | 19682 ft | 273 kts | 287° |
| 2026-04-25 17:46 | 55.59629 | 11.97594 | 20635 ft | 279 kts | 287° |
| 2026-04-25 17:46 | 55.59883 | 11.94145 | 21622 ft | 282 kts | 287° |
| 2026-04-25 17:46 | 55.60125 | 11.90738 | 22625 ft | 286 kts | 288° |
| 2026-04-25 17:47 | 55.60388 | 11.87166 | 23597 ft | 297 kts | 288° |
| 2026-04-25 17:47 | 55.60638 | 11.83567 | 24438 ft | 295 kts | 288° |
| 2026-04-25 17:47 | 55.60906 | 11.79893 | 25342 ft | 306 kts | 288° |
| 2026-04-25 17:47 | 55.61170 | 11.76151 | 26273 ft | 306 kts | 288° |
| 2026-04-25 17:48 | 55.61715 | 11.68445 | 28248 ft | 320 kts | 288° |
| 2026-04-25 17:48 | 55.61989 | 11.64503 | 29295 ft | 328 kts | 288° |
| 2026-04-25 17:48 | 55.62276 | 11.60437 | 30307 ft | 337 kts | 288° |
| 2026-04-25 17:49 | 55.62567 | 11.56256 | 31235 ft | 346 kts | 288° |
| 2026-04-25 17:49 | 55.62859 | 11.51988 | 32188 ft | 353 kts | 287° |
| 2026-04-25 17:49 | 55.63157 | 11.47631 | 33177 ft | 360 kts | 287° |
| 2026-04-25 17:49 | 55.63456 | 11.43251 | 34144 ft | 366 kts | 287° |
| 2026-04-25 17:50 | 55.63761 | 11.38740 | 35027 ft | 371 kts | 286° |
| 2026-04-25 17:50 | 55.64068 | 11.34189 | 35934 ft | 374 kts | 285° |
| 2026-04-25 17:50 | 55.64375 | 11.29599 | 36881 ft | 376 kts | 284° |
| 2026-04-25 17:50 | 55.64681 | 11.24995 | 37868 ft | 376 kts | 283° |
| 2026-04-25 17:51 | 55.64979 | 11.20501 | 38812 ft | 375 kts | 283° |
| 2026-04-25 17:51 | 55.65281 | 11.15930 | 39634 ft | 373 kts | 282° |
| 2026-04-25 17:51 | 55.65587 | 11.11316 | 39923 ft | 387 kts | 282° |
| 2026-04-25 17:51 | 55.65912 | 11.06457 | 39939 ft | 407 kts | 282° |
| 2026-04-25 17:52 | 55.66243 | 11.01323 | 39960 ft | 428 kts | 282° |
| 2026-04-25 17:52 | 55.66939 | 10.90419 | 39962 ft | 467 kts | 281° |
| 2026-04-25 17:53 | 55.67650 | 10.78998 | 39958 ft | 464 kts | 281° |
| 2026-04-25 17:53 | 55.68370 | 10.67566 | 39960 ft | 467 kts | 281° |
| 2026-04-25 17:54 | 55.69066 | 10.56136 | 39953 ft | 466 kts | 281° |
| 2026-04-25 17:54 | 55.69760 | 10.44674 | 39963 ft | 468 kts | 281° |
| 2026-04-25 17:55 | 55.70441 | 10.33187 | 39960 ft | 469 kts | 281° |
| 2026-04-25 17:55 | 55.71115 | 10.21678 | 39964 ft | 469 kts | 281° |
| 2026-04-25 17:56 | 55.71777 | 10.10151 | 39969 ft | 470 kts | 281° |
| 2026-04-25 17:56 | 55.72430 | 9.98598 | 39976 ft | 471 kts | 281° |
| 2026-04-25 17:57 | 55.73073 | 9.87014 | 39985 ft | 472 kts | 281° |
| 2026-04-25 17:57 | 55.73703 | 9.75497 | 39992 ft | 473 kts | 281° |
| 2026-04-25 17:58 | 55.74325 | 9.63891 | 39995 ft | 473 kts | 281° |
| 2026-04-25 17:58 | 55.74939 | 9.52252 | 39989 ft | 474 kts | 281° |
| 2026-04-25 17:59 | 55.75542 | 9.40576 | 39989 ft | 475 kts | 281° |
| 2026-04-25 17:59 | 55.76130 | 9.29032 | 39987 ft | 475 kts | 281° |
| 2026-04-25 18:00 | 55.76712 | 9.17331 | 40012 ft | 476 kts | 281° |
| 2026-04-25 18:00 | 55.77283 | 9.05616 | 40015 ft | 476 kts | 281° |
| 2026-04-25 18:01 | 55.77846 | 8.93872 | 40013 ft | 477 kts | 281° |
| 2026-04-25 18:01 | 55.78397 | 8.82125 | 40021 ft | 478 kts | 281° |
| 2026-04-25 18:02 | 55.78936 | 8.70421 | 40033 ft | 478 kts | 281° |
| 2026-04-25 18:02 | 55.79470 | 8.58544 | 40049 ft | 478 kts | 281° |
| 2026-04-25 18:03 | 55.79989 | 8.46742 | 40053 ft | 479 kts | 281° |
| 2026-04-25 18:03 | 55.80498 | 8.34919 | 40054 ft | 480 kts | 280° |
| 2026-04-25 18:04 | 55.80992 | 8.23150 | 40063 ft | 480 kts | 280° |
| 2026-04-25 18:04 | 55.81480 | 8.11304 | 40072 ft | 481 kts | 280° |
| 2026-04-25 18:05 | 55.81956 | 7.99430 | 40084 ft | 481 kts | 280° |
| 2026-04-25 18:05 | 55.82421 | 7.87564 | 40083 ft | 481 kts | 280° |
| 2026-04-25 18:06 | 55.82875 | 7.75678 | 40092 ft | 482 kts | 280° |
| 2026-04-25 18:06 | 55.83317 | 7.63774 | 40297 ft | 477 kts | 279° |
| 2026-04-25 18:06 | 55.83529 | 7.57904 | 40811 ft | 478 kts | 279° |
| 2026-04-25 18:07 | 55.83749 | 7.51967 | 41336 ft | 484 kts | 279° |
| 2026-04-25 18:07 | 55.83893 | 7.47978 | 41704 ft | 488 kts | 278° |
| 2026-04-25 18:07 | 55.84102 | 7.41935 | 42390 ft | 492 kts | 278° |
| 2026-04-25 18:07 | 55.84311 | 7.35842 | 43069 ft | 495 kts | 277° |
| 2026-04-25 18:08 | 55.84526 | 7.29655 | 43105 ft | 503 kts | 277° |
| 2026-04-25 18:08 | 55.84728 | 7.23529 | 43111 ft | 491 kts | 277° |
| 2026-04-25 18:08 | 55.84928 | 7.17452 | 43111 ft | 493 kts | 277° |
| 2026-04-25 18:09 | 55.85330 | 7.05214 | 43121 ft | 496 kts | 277° |
| 2026-04-25 18:09 | 55.85710 | 6.93040 | 43124 ft | 495 kts | 277° |
| 2026-04-25 18:10 | 55.86084 | 6.80799 | 43130 ft | 495 kts | 277° |
| 2026-04-25 18:10 | 55.86445 | 6.68531 | 43136 ft | 497 kts | 277° |
| 2026-04-25 18:11 | 55.86795 | 6.56240 | 43139 ft | 497 kts | 277° |
| 2026-04-25 18:11 | 55.87131 | 6.44011 | 43143 ft | 497 kts | 276° |
| 2026-04-25 18:12 | 55.87457 | 6.31689 | 43152 ft | 498 kts | 276° |
| 2026-04-25 18:12 | 55.87771 | 6.19348 | 43151 ft | 498 kts | 276° |
| 2026-04-25 18:13 | 55.88072 | 6.07022 | 43166 ft | 499 kts | 276° |
| 2026-04-25 18:13 | 55.88360 | 5.94734 | 43168 ft | 499 kts | 276° |
| 2026-04-25 18:14 | 55.88771 | 5.76215 | 43175 ft | 499 kts | 276° |
| 2026-04-25 18:14 | 55.89029 | 5.63851 | 43176 ft | 499 kts | 276° |
| 2026-04-25 18:15 | 55.89276 | 5.51482 | 43185 ft | 499 kts | 276° |
| 2026-04-25 18:15 | 55.89510 | 5.39113 | 43180 ft | 499 kts | 275° |
| 2026-04-25 18:16 | 55.89732 | 5.26737 | 43181 ft | 499 kts | 275° |